Terminal Aerodrome Forecast
Issued by NWS

Current Version | Previous Version | Text Only | Print | Product List | Glossary On
Versions: 1 2 3 4 5 6 7 8 9 10 11 12 13 14 15 16
000
FTUS43 KABR 061128
TAFPIR
TAF
KPIR 061128Z 0612/0712 20006KT P6SM SKC
     FM061600 23006KT P6SM SCT250
     FM062000 35009KT P6SM SCT060
     FM062300 04013G22KT P6SM SCT060=

USA.gov is the U.S. government's official web portal to all federal, state and local government web resources and services.